This is the latest recevied weather packets stored in our database for station/object kj4yre. If no packets are shown the sender has not sent any weather packets the latest 10 day(s).
| Time | Temp. | Humidity | Pressure | Rain* | Wind** | Luminosity | Snow |
|---|---|---|---|---|---|---|---|
| 1778144838 | 17.22° C | 99% | 1009.6 hPa | 0 mm | - | - | - |
| 1778144537 | 17.78° C | 99% | 1009.4 hPa | 0 mm | - | - | - |
| 1778143337 | 18.89° C | 100% | 1009 hPa | 0 mm | - | - | - |
| 1778142737 | 18.89° C | 100% | 1009.1 hPa | 0 mm | - | - | - |
| 1778142436 | 18.89° C | 100% | 1008.6 hPa | 0 mm | - | - | - |
| 1778141236 | 18.89° C | 99% | 1009 hPa | 0 mm | - | - | - |
| 1778140636 | 19.44° C | 99% | 1009 hPa | 0 mm | - | - | - |
| 1778138235 | 19.44° C | 97% | 1009.3 hPa | 0 mm | - | - | - |
| 1778137035 | 19.44° C | 98% | 1008.6 hPa | 0 mm | - | - | - |
| 1778134037 | 20° C | 96% | 1009.3 hPa | 0 mm | - | - | - |
| 1778131336 | 20.56° C | 92% | 1010.6 hPa | 0 mm | - | - | - |
| 1778131037 | 20.56° C | 90% | 1010.8 hPa | 0 mm | - | - | - |
| 1778130436 | 21.11° C | 87% | 1011 hPa | 0 mm | - | - | - |
| 1778129834 | 21.11° C | 86% | 1010.9 hPa | 0 mm | - | - | - |
| 1778129535 | 21.11° C | 86% | 1011 hPa | 0 mm | - | - | - |
| 1778128036 | 20.56° C | 86% | 1010.9 hPa | 0 mm | - | - | - |
| 1778127436 | 20.56° C | 87% | 1010.8 hPa | 0 mm | - | - | - |
| 1778127137 | 20.56° C | 88% | 1010.7 hPa | 0 mm | - | - | - |
| 1778126836 | 20.56° C | 88% | 1010.6 hPa | 0 mm | - | - | - |
| 1778125935 | 20° C | 90% | 1010.8 hPa | 0 mm | - | - | - |
| 1778122036 | 20° C | 88% | 1010.8 hPa | 0 mm | - | - | - |
| 1778121137 | 20° C | 89% | 1011 hPa | 0 mm | - | - | - |
| 1778120536 | 20° C | 89% | 1011 hPa | 0 mm | - | - | - |
| 1778119035 | 19.44° C | 91% | 1010.8 hPa | 0 mm | - | - | - |
| 1778116636 | 20° C | 89% | 1011 hPa | 0 mm | - | - | - |
* Rain latest hour (hover to see other rain measurements)
** Current wind speed in m/s (hover to see current wind gust speed)